createdAt,value
2022-11-15T00:02:53.652Z,16.15
2022-11-15T00:08:17.335Z,17.90
2022-11-15T00:13:40.043Z,18.70
2022-11-15T00:19:01.909Z,20.05
2022-11-15T00:24:25.114Z,18.90
2022-11-15T00:29:46.756Z,17.85
2022-11-15T00:35:09.219Z,17.85
2022-11-15T00:40:32.733Z,15.85
2022-11-15T00:45:54.465Z,15.40
2022-11-15T00:51:16.492Z,17.52
2022-11-15T00:56:39.792Z,17.55
2022-11-15T01:02:02.284Z,18.80
2022-11-15T01:07:24.607Z,17.95
2022-11-15T01:12:48.166Z,16.10
2022-11-15T01:18:10.206Z,18.98
2022-11-15T01:23:32.446Z,16.88
2022-11-15T01:28:55.705Z,16.08
2022-11-15T01:34:17.620Z,17.73
2022-11-15T01:39:39.704Z,17.60
2022-11-15T01:45:03.553Z,18.30
2022-11-15T01:50:31.572Z,16.55
2022-11-15T01:55:54.967Z,18.92
2022-11-15T02:01:19.170Z,18.90
2022-11-15T02:06:42.273Z,17.70
2022-11-15T02:12:04.881Z,18.00
2022-11-15T02:17:49.437Z,18.17
2022-11-15T02:23:42.483Z,18.23
2022-11-15T02:29:06.913Z,19.20
2022-11-15T02:34:38.134Z,19.70
2022-11-15T02:40:08.049Z,19.75
2022-11-15T02:45:33.328Z,18.30
2022-11-15T02:50:56.493Z,17.95
2022-11-15T02:56:18.510Z,16.95
2022-11-15T03:01:50.257Z,17.02
2022-11-15T03:07:19.720Z,17.55
2022-11-15T03:12:47.217Z,17.60
2022-11-15T03:18:17.273Z,19.02
2022-11-15T03:23:40.763Z,16.13
2022-11-15T03:29:07.458Z,19.17
2022-11-15T03:34:33.295Z,20.17
2022-11-15T03:39:56.781Z,16.95
2022-11-15T03:45:23.910Z,18.60
2022-11-15T03:50:47.314Z,18.40
2022-11-15T03:56:10.314Z,17.33
2022-11-15T04:01:31.966Z,19.75
2022-11-15T04:06:53.925Z,17.83
2022-11-15T04:12:31.670Z,19.15
2022-11-15T04:17:55.297Z,18.88
2022-11-15T04:23:38.013Z,14.73
2022-11-15T04:29:20.088Z,16.70
2022-11-15T04:34:41.989Z,18.90
2022-11-15T04:40:04.434Z,16.55
2022-11-15T04:45:27.260Z,17.85
2022-11-15T04:50:49.672Z,18.05
2022-11-15T04:56:13.900Z,15.45
2022-11-15T05:01:41.943Z,17.60
2022-11-15T05:07:06.583Z,17.73
2022-11-15T05:12:28.957Z,17.63
2022-11-15T05:17:51.955Z,14.98
2022-11-15T05:23:13.808Z,15.63
2022-11-15T05:28:37.341Z,16.10
2022-11-15T05:34:03.026Z,15.57
2022-11-15T05:39:26.917Z,17.27
2022-11-15T05:44:50.449Z,16.50
2022-11-15T05:50:16.323Z,15.98
2022-11-15T05:55:40.018Z,16.88
2022-11-15T06:01:01.713Z,18.40
2022-11-15T06:06:24.821Z,17.13
2022-11-15T06:11:46.485Z,16.02
2022-11-15T06:17:11.333Z,17.38
2022-11-15T06:22:34.789Z,17.92
2022-11-15T06:27:57.543Z,16.25
2022-11-15T06:33:19.906Z,16.38
2022-11-15T06:38:43.993Z,16.23
2022-11-15T06:44:05.795Z,16.27
2022-11-15T06:49:27.993Z,15.25
2022-11-15T06:54:50.825Z,14.13
2022-11-15T07:00:14.002Z,15.70
2022-11-15T07:05:36.447Z,15.93
2022-11-15T07:11:05.234Z,16.85
2022-11-15T07:16:29.125Z,18.30
2022-11-15T07:21:51.741Z,18.25
2022-11-15T07:27:14.972Z,19.00
2022-11-15T07:32:37.308Z,21.77
2022-11-15T07:38:01.087Z,20.90
2022-11-15T07:43:24.555Z,21.88
2022-11-15T07:48:46.356Z,18.75
2022-11-15T07:54:08.483Z,21.92
2022-11-15T07:59:31.869Z,21.17
2022-11-15T08:04:53.478Z,20.90
2022-11-15T08:10:19.996Z,22.00
2022-11-15T08:15:44.690Z,22.05
2022-11-15T08:21:06.939Z,22.98
2022-11-15T08:26:30.976Z,23.77
2022-11-15T08:31:55.803Z,20.80
2022-11-15T08:37:18.643Z,20.75
2022-11-15T08:42:40.821Z,20.17
2022-11-15T08:48:04.453Z,16.95
2022-11-15T08:53:26.807Z,15.90
2022-11-15T08:58:48.587Z,14.90
2022-11-15T09:04:12.058Z,15.02
2022-11-15T09:09:34.574Z,14.00
2022-11-15T09:14:56.316Z,14.18
2022-11-15T09:20:19.869Z,12.18
2022-11-15T09:25:42.054Z,13.27
2022-11-15T09:31:06.187Z,11.77
2022-11-15T09:36:29.521Z,11.30
2022-11-15T09:42:07.130Z,12.25
2022-11-15T09:47:44.721Z,12.00
2022-11-15T09:53:14.151Z,10.93
2022-11-15T09:58:25.749Z,10.02
2022-11-15T10:03:31.653Z,10.32
2022-11-15T10:08:55.547Z,11.70
2022-11-15T10:14:02.499Z,11.75
2022-11-15T10:19:13.524Z,10.13
2022-11-15T10:24:21.318Z,10.38
2022-11-15T10:29:27.186Z,9.82
2022-11-15T10:34:36.242Z,10.35
2022-11-15T10:39:41.041Z,11.45
2022-11-15T10:44:45.775Z,9.18
2022-11-15T10:49:56.613Z,9.13
2022-11-15T10:55:06.543Z,8.73
2022-11-15T11:00:29.955Z,9.48
2022-11-15T11:05:41.336Z,8.65
2022-11-15T11:10:58.616Z,7.93
2022-11-15T11:16:39.267Z,8.63
2022-11-15T11:21:50.655Z,8.82
2022-11-15T11:27:09.675Z,8.55
2022-11-15T11:32:31.958Z,8.60
2022-11-15T11:37:41.017Z,9.43
2022-11-15T11:43:00.364Z,8.45
2022-11-15T11:48:13.838Z,8.40
2022-11-15T11:53:26.255Z,6.95
2022-11-15T11:58:36.785Z,7.72
2022-11-15T12:03:46.746Z,8.00
2022-11-15T12:08:54.814Z,7.55
2022-11-15T12:14:02.445Z,8.18
2022-11-15T12:19:06.298Z,6.85
2022-11-15T12:24:16.506Z,6.65
2022-11-15T12:29:27.836Z,7.40
2022-11-15T12:34:42.479Z,8.07
2022-11-15T12:40:19.268Z,7.47
2022-11-15T12:45:30.987Z,8.13
2022-11-15T12:50:57.513Z,7.10
2022-11-15T12:56:23.305Z,7.93
2022-11-15T13:02:00.861Z,7.43
2022-11-15T13:07:05.960Z,7.32
2022-11-15T13:17:30.642Z,7.30
2022-11-15T13:22:52.770Z,7.78
2022-11-15T13:27:59.640Z,8.68
2022-11-15T13:33:11.955Z,9.55
2022-11-15T13:38:25.994Z,8.73
2022-11-15T13:43:35.407Z,7.68
2022-11-15T13:48:40.102Z,8.73
2022-11-15T13:53:47.575Z,9.48
2022-11-15T13:58:51.394Z,9.65
2022-11-15T14:03:58.438Z,9.68
2022-11-15T14:09:16.819Z,9.57
2022-11-15T14:14:23.235Z,8.57
2022-11-15T14:19:40.371Z,9.48
2022-11-15T14:24:46.768Z,8.88
2022-11-15T14:29:50.904Z,9.38
2022-11-15T14:34:57.949Z,10.70
2022-11-15T14:40:01.698Z,9.73
2022-11-15T14:45:12.953Z,11.43
2022-11-15T14:50:20.328Z,8.98
2022-11-15T14:55:25.634Z,9.48
2022-11-15T15:00:34.823Z,11.07
2022-11-15T15:05:42.513Z,10.15
2022-11-15T15:10:46.702Z,9.73
2022-11-15T15:15:51.058Z,10.30
2022-11-15T15:21:01.241Z,10.32
2022-11-15T15:26:05.353Z,10.95
2022-11-15T15:31:10.416Z,10.40
2022-11-15T15:36:19.028Z,9.20
2022-11-15T15:41:22.645Z,10.48
2022-11-15T15:46:26.319Z,9.38
2022-11-15T15:51:31.021Z,9.38
2022-11-15T15:56:34.213Z,10.50
2022-11-15T16:01:37.370Z,11.00
2022-11-15T16:06:45.216Z,9.43
2022-11-15T16:11:48.491Z,11.00
2022-11-15T16:16:51.619Z,9.45
2022-11-15T16:21:56.095Z,10.38
2022-11-15T16:26:59.460Z,12.40
2022-11-15T16:32:02.937Z,11.07
2022-11-15T16:37:19.718Z,12.18
2022-11-15T16:42:23.197Z,12.80
2022-11-15T16:47:26.394Z,13.57
2022-11-15T16:52:30.974Z,12.98
2022-11-15T16:57:34.963Z,12.05
2022-11-15T17:02:38.118Z,12.43
2022-11-15T17:07:43.183Z,12.82
2022-11-15T17:12:46.566Z,12.85
2022-11-15T17:17:52.139Z,12.93
2022-11-15T17:22:56.711Z,14.52
2022-11-15T17:28:00.163Z,16.23
2022-11-15T17:33:03.561Z,17.63
2022-11-15T17:38:08.133Z,15.75
2022-11-15T17:43:11.472Z,17.85
2022-11-15T17:48:14.870Z,15.95
2022-11-15T17:53:19.365Z,17.27
2022-11-15T17:58:23.015Z,19.42
2022-11-15T18:03:26.675Z,17.80
2022-11-15T18:08:31.199Z,19.48
2022-11-15T18:13:36.143Z,19.65
2022-11-15T18:18:39.970Z,19.90
2022-11-15T18:23:44.868Z,19.40
2022-11-15T18:28:49.805Z,20.02
2022-11-15T18:33:54.000Z,17.63
2022-11-15T18:39:02.379Z,21.20
2022-11-15T18:44:07.294Z,22.00
2022-11-15T18:49:12.536Z,21.73
2022-11-15T18:54:18.101Z,20.55
2022-11-15T18:59:21.318Z,18.67
2022-11-15T19:04:24.651Z,19.90
2022-11-15T19:09:32.755Z,20.42
2022-11-15T19:14:36.061Z,20.70
2022-11-15T19:19:39.408Z,21.20
2022-11-15T19:24:44.231Z,20.77
2022-11-15T19:29:47.446Z,22.50
2022-11-15T19:34:51.078Z,19.13
2022-11-15T19:39:56.751Z,18.58
2022-11-15T19:45:00.670Z,20.23
2022-11-15T19:50:06.640Z,20.23
2022-11-15T19:55:11.534Z,22.65
2022-11-15T20:00:15.103Z,20.75
2022-11-15T20:05:18.591Z,19.92
2022-11-15T20:10:23.349Z,19.00
2022-11-15T20:15:26.562Z,20.30
2022-11-15T20:20:30.606Z,20.40
2022-11-15T20:25:38.959Z,21.80
2022-11-15T20:30:43.168Z,20.95
2022-11-15T20:35:46.444Z,20.05
2022-11-15T20:40:57.422Z,18.63
2022-11-15T20:46:02.184Z,20.25
2022-11-15T20:51:07.808Z,20.15
2022-11-15T20:56:15.181Z,19.48
2022-11-15T21:01:23.776Z,18.77
2022-11-15T21:06:27.606Z,20.90
2022-11-15T21:11:51.557Z,16.60
2022-11-15T21:16:54.997Z,17.30
2022-11-15T21:21:58.470Z,17.17
2022-11-15T21:27:03.616Z,17.85
2022-11-15T21:32:08.363Z,17.83
2022-11-15T21:37:11.863Z,17.67
2022-11-15T21:42:16.587Z,18.27
2022-11-15T21:47:19.775Z,18.00
2022-11-15T21:52:23.016Z,16.27
2022-11-15T21:57:30.185Z,17.45
2022-11-15T22:02:33.608Z,18.67
2022-11-15T22:07:37.471Z,16.38
2022-11-15T22:12:42.564Z,17.55
2022-11-15T22:17:58.228Z,15.05
2022-11-15T22:23:02.283Z,16.45
2022-11-15T22:28:08.891Z,15.27
2022-11-15T22:33:12.881Z,15.30
2022-11-15T22:38:17.937Z,17.50
2022-11-15T22:43:24.977Z,16.52
2022-11-15T22:48:31.433Z,16.73
2022-11-15T22:53:35.868Z,18.13
2022-11-15T22:58:40.923Z,18.52
2022-11-15T23:03:44.495Z,18.52
2022-11-15T23:08:48.125Z,18.05
2022-11-15T23:13:53.506Z,16.45
2022-11-15T23:18:58.170Z,18.40
2022-11-15T23:24:01.694Z,17.35
2022-11-15T23:29:06.284Z,16.63
2022-11-15T23:34:10.705Z,17.20
2022-11-15T23:39:15.734Z,17.13
2022-11-15T23:44:20.329Z,17.00
2022-11-15T23:49:24.316Z,16.95
2022-11-15T23:54:27.975Z,17.88
2022-11-15T23:59:32.581Z,16.27
